createdAt,value
2023-05-05T05:44:17.904Z,18.21
2023-05-05T05:46:21.077Z,18.47
2023-05-05T05:48:28.257Z,18.67
2023-05-05T05:50:31.246Z,18.80
2023-05-05T05:52:36.049Z,18.91
2023-05-05T05:54:38.893Z,19.00
2023-05-05T05:56:41.652Z,19.12
2023-05-05T05:58:45.211Z,19.22
2023-05-05T06:00:49.363Z,19.33
2023-05-05T06:02:52.383Z,19.40
2023-05-05T06:04:55.233Z,19.46
2023-05-05T06:06:58.424Z,19.48
2023-05-05T06:09:01.263Z,19.53
2023-05-05T06:11:04.212Z,19.56
2023-05-05T06:13:07.081Z,19.57
2023-05-05T06:15:11.049Z,19.61
2023-05-05T06:17:15.364Z,19.64
2023-05-05T06:19:18.521Z,19.65
2023-05-05T06:21:21.483Z,19.70
2023-05-05T06:23:24.303Z,19.76
2023-05-05T06:25:27.727Z,19.84
2023-05-05T06:27:33.358Z,19.91
2023-05-05T06:29:36.227Z,19.97
2023-05-05T06:31:39.217Z,20.06
2023-05-05T06:33:43.653Z,20.13
2023-05-05T06:35:47.750Z,20.20
2023-05-05T06:37:50.914Z,20.24
2023-05-05T06:39:53.773Z,20.32
2023-05-05T06:41:56.763Z,20.40
2023-05-05T06:43:59.590Z,20.45
2023-05-05T06:46:02.575Z,20.52
2023-05-05T06:48:05.822Z,20.55
2023-05-05T06:50:10.777Z,20.58
2023-05-05T06:52:13.925Z,20.60
2023-05-05T06:54:16.810Z,20.60
2023-05-05T06:56:22.139Z,20.60
2023-05-05T06:58:25.221Z,20.57
2023-05-05T07:00:28.150Z,20.56
2023-05-05T07:02:30.966Z,20.57
2023-05-05T07:04:33.977Z,20.59
2023-05-05T07:06:39.223Z,20.62
2023-05-05T07:08:42.128Z,20.64
2023-05-05T07:10:44.872Z,20.68
2023-05-05T07:12:47.728Z,20.68
2023-05-05T07:14:50.993Z,20.68
2023-05-05T07:16:54.641Z,20.64
2023-05-05T07:18:57.471Z,20.61
2023-05-05T07:21:02.373Z,20.59
2023-05-05T07:23:09.368Z,20.57
2023-05-05T07:25:12.401Z,20.56
2023-05-05T07:27:15.480Z,20.55
2023-05-05T07:29:18.465Z,20.55
2023-05-05T07:31:21.959Z,20.58
2023-05-05T07:33:24.858Z,20.59
2023-05-05T07:35:27.655Z,20.60
2023-05-05T07:37:30.488Z,20.64
2023-05-05T07:39:35.221Z,20.68
2023-05-05T07:41:38.101Z,20.69
2023-05-05T07:43:44.215Z,20.72
2023-05-05T07:45:47.723Z,20.73
2023-05-05T07:47:50.716Z,20.74
2023-05-05T07:49:53.562Z,20.76
2023-05-05T07:51:56.714Z,20.75
2023-05-05T07:54:02.359Z,20.76
2023-05-05T07:56:09.041Z,20.73
2023-05-05T07:58:12.317Z,20.74
2023-05-05T08:00:16.111Z,20.74
2023-05-05T08:02:19.016Z,20.76
2023-05-05T08:04:21.985Z,20.77
2023-05-05T08:06:25.181Z,20.79
2023-05-05T08:08:27.971Z,20.79
2023-05-05T08:10:30.757Z,20.78
2023-05-05T08:12:37.264Z,20.77
2023-05-05T08:14:42.328Z,20.74
2023-05-05T08:16:45.319Z,20.73
2023-05-05T08:18:48.097Z,20.70
2023-05-05T08:20:52.087Z,20.69
2023-05-05T08:22:55.278Z,20.70
2023-05-05T08:24:58.103Z,20.69
2023-05-05T08:27:01.542Z,20.71
2023-05-05T08:29:05.761Z,20.73
2023-05-05T08:31:09.108Z,20.72
2023-05-05T08:33:11.999Z,20.74
2023-05-05T08:35:15.260Z,20.72
2023-05-05T08:37:18.903Z,20.72
2023-05-05T08:39:21.735Z,20.73
2023-05-05T08:41:24.727Z,20.75
2023-05-05T08:43:30.123Z,20.74
2023-05-05T08:45:34.304Z,20.77
2023-05-05T08:47:39.103Z,20.80
2023-05-05T08:49:46.037Z,20.82
2023-05-05T08:51:49.736Z,20.82
2023-05-05T08:53:58.725Z,20.81
2023-05-05T08:56:03.767Z,20.84
2023-05-05T08:58:07.282Z,20.85
2023-05-05T09:00:12.000Z,20.89
2023-05-05T09:02:17.821Z,20.88
2023-05-05T09:04:21.049Z,20.89
2023-05-05T09:06:26.818Z,20.87
2023-05-05T09:08:30.633Z,20.87
2023-05-05T09:10:34.532Z,20.88
2023-05-05T09:12:40.351Z,20.91
2023-05-05T09:14:43.443Z,20.96
2023-05-05T09:16:46.400Z,20.98
2023-05-05T09:18:50.546Z,20.99
2023-05-05T09:20:53.459Z,21.03
2023-05-05T09:22:58.006Z,21.08
2023-05-05T09:25:00.806Z,21.11
2023-05-05T09:27:22.690Z,21.12
2023-05-05T09:29:25.565Z,21.12
2023-05-05T09:31:29.197Z,21.15
2023-05-05T09:33:32.689Z,21.16
2023-05-05T09:35:54.647Z,21.18
2023-05-05T09:37:59.479Z,21.17
2023-05-05T09:40:02.462Z,21.21
2023-05-05T09:42:05.660Z,21.23
2023-05-05T09:44:08.932Z,21.26
2023-05-05T09:46:11.830Z,21.29
2023-05-05T09:48:26.599Z,21.32
2023-05-05T09:50:32.527Z,21.37
2023-05-05T09:52:37.279Z,21.39
2023-05-05T09:54:40.238Z,21.42
2023-05-05T09:56:44.038Z,21.45
2023-05-05T09:58:47.027Z,21.51
2023-05-05T10:00:51.435Z,21.54
2023-05-05T10:03:03.891Z,21.52
2023-05-05T10:05:12.952Z,21.56
2023-05-05T10:07:25.154Z,21.56
2023-05-05T10:09:31.635Z,21.58
2023-05-05T10:11:35.327Z,21.61
2023-05-05T10:13:42.098Z,21.65
2023-05-05T10:15:46.887Z,21.67
2023-05-05T10:18:05.974Z,21.70
2023-05-05T10:20:14.048Z,21.73
2023-05-05T10:22:18.162Z,21.74
2023-05-05T10:24:35.689Z,21.75
2023-05-05T10:26:41.841Z,21.76
2023-05-05T10:28:46.743Z,21.78
2023-05-05T10:30:53.166Z,21.77
2023-05-05T10:33:18.222Z,21.77
2023-05-05T10:35:27.220Z,21.76
2023-05-05T10:37:30.966Z,21.74
2023-05-05T10:39:38.271Z,21.71
2023-05-05T10:41:41.361Z,21.71
2023-05-05T10:43:44.543Z,21.71
2023-05-05T10:45:47.608Z,21.71
2023-05-05T10:47:52.066Z,21.70
2023-05-05T10:49:59.129Z,21.70
2023-05-05T10:52:09.865Z,21.66
2023-05-05T10:54:21.324Z,21.67
2023-05-05T10:56:32.545Z,21.67
2023-05-05T10:58:44.116Z,21.68
2023-05-05T11:00:58.849Z,21.66
2023-05-05T11:03:21.497Z,21.67
2023-05-05T11:05:24.768Z,21.67
2023-05-05T11:07:28.106Z,21.66
2023-05-05T11:09:31.312Z,21.66
2023-05-05T11:12:04.130Z,21.64
2023-05-05T11:14:22.523Z,21.66
2023-05-05T11:16:47.683Z,21.65
2023-05-05T11:18:50.638Z,21.65
2023-05-05T11:21:19.191Z,21.65
2023-05-05T11:23:22.913Z,21.66
2023-05-05T11:25:47.331Z,21.67
2023-05-05T11:28:07.472Z,21.65
2023-05-05T11:30:13.245Z,21.65
2023-05-05T11:32:16.687Z,21.69
2023-05-05T11:34:29.069Z,21.73
2023-05-05T11:36:41.908Z,21.77
2023-05-05T11:39:10.356Z,21.80
2023-05-05T11:41:14.851Z,21.83
2023-05-05T11:43:21.275Z,21.83
2023-05-05T11:45:25.550Z,21.85
2023-05-05T11:47:37.285Z,21.88
2023-05-05T11:49:40.879Z,21.89
2023-05-05T11:51:44.484Z,21.92
2023-05-05T11:53:48.512Z,21.92
2023-05-05T11:56:06.638Z,21.93
2023-05-05T11:58:19.119Z,21.95
2023-05-05T12:00:33.472Z,21.97
2023-05-05T12:02:36.366Z,21.97
2023-05-05T12:04:40.955Z,21.98
2023-05-05T12:06:44.872Z,21.97
2023-05-05T12:08:47.982Z,22.00
2023-05-05T12:10:50.795Z,22.03
2023-05-05T12:12:55.377Z,22.04
2023-05-05T12:14:58.617Z,22.06
2023-05-05T12:17:08.803Z,22.08
2023-05-05T12:19:14.334Z,22.14
2023-05-05T12:21:17.650Z,22.21
2023-05-05T12:23:22.841Z,22.26
2023-05-05T12:25:26.664Z,22.27
2023-05-05T12:27:29.847Z,22.30
2023-05-05T12:29:32.910Z,22.37
2023-05-05T12:31:36.966Z,22.41
2023-05-05T12:33:42.248Z,22.43
2023-05-05T12:35:45.109Z,22.48
2023-05-05T12:37:48.080Z,22.49
2023-05-05T12:39:52.027Z,22.50
2023-05-05T12:42:03.544Z,22.53
2023-05-05T12:44:06.681Z,22.55
2023-05-05T12:46:12.732Z,22.55
2023-05-05T12:48:33.522Z,22.51
2023-05-05T12:50:40.667Z,22.54
2023-05-05T12:52:44.869Z,22.57
2023-05-05T12:54:55.157Z,22.54
2023-05-05T12:56:58.557Z,22.56
2023-05-05T12:59:02.081Z,22.56
2023-05-05T13:01:11.203Z,22.52
2023-05-05T13:03:20.542Z,22.53
2023-05-05T13:05:33.521Z,22.53
2023-05-05T13:07:50.342Z,22.55
2023-05-05T13:09:53.106Z,22.58
2023-05-05T13:11:56.421Z,22.58
2023-05-05T13:13:59.175Z,22.63
2023-05-05T13:16:02.000Z,22.63
2023-05-05T13:18:05.439Z,22.62
2023-05-05T13:20:10.020Z,22.65
2023-05-05T13:22:13.416Z,22.65
2023-05-05T13:26:23.244Z,22.67
2023-05-05T13:28:26.005Z,22.67
2023-05-05T13:30:28.893Z,22.63
2023-05-05T13:32:32.624Z,22.63
2023-05-05T13:34:35.799Z,22.63
2023-05-05T13:36:38.628Z,22.64
2023-05-05T13:38:41.455Z,22.66
2023-05-05T13:40:45.672Z,22.66
2023-05-05T13:42:48.427Z,22.69
2023-05-05T13:44:51.232Z,22.70
2023-05-05T13:46:54.287Z,22.70
2023-05-05T13:48:57.268Z,22.69
2023-05-05T13:51:00.020Z,22.74
2023-05-05T13:53:03.069Z,22.78
2023-05-05T13:55:07.218Z,22.82
2023-05-05T13:57:12.241Z,22.89
2023-05-05T13:59:15.262Z,22.89
2023-05-05T14:01:18.133Z,22.94
2023-05-05T14:03:20.864Z,22.98
2023-05-05T14:05:23.865Z,23.01
2023-05-05T14:07:27.597Z,23.06
2023-05-05T14:09:30.585Z,23.10
2023-05-05T14:11:33.575Z,23.14
2023-05-05T14:13:38.897Z,23.15
2023-05-05T14:15:41.624Z,23.16
2023-05-05T14:17:44.530Z,23.14
2023-05-05T14:19:47.273Z,23.07
2023-05-05T14:21:50.737Z,23.04
2023-05-05T14:23:54.566Z,23.02
2023-05-05T14:25:57.824Z,22.99
2023-05-05T14:28:03.649Z,23.02
2023-05-05T14:30:09.640Z,23.05
2023-05-05T14:32:12.531Z,23.06
2023-05-05T14:34:15.514Z,23.05
2023-05-05T14:36:18.435Z,23.04
2023-05-05T14:38:21.394Z,23.12
2023-05-05T14:40:24.457Z,23.17
2023-05-05T14:42:27.848Z,23.20
2023-05-05T14:44:31.233Z,23.19
2023-05-05T14:46:35.604Z,23.19
2023-05-05T14:48:38.826Z,23.21
2023-05-05T14:50:42.452Z,23.21
2023-05-05T14:52:45.339Z,23.25
2023-05-05T14:54:49.021Z,23.26
2023-05-05T14:56:51.957Z,23.26
2023-05-05T14:58:54.929Z,23.33
2023-05-05T15:00:57.964Z,23.33
2023-05-05T15:03:02.166Z,23.33
2023-05-05T15:05:05.418Z,23.33
2023-05-05T15:07:08.137Z,23.30
2023-05-05T15:09:10.810Z,23.28
2023-05-05T15:11:13.697Z,23.28
2023-05-05T15:13:17.168Z,23.27
2023-05-05T15:15:20.207Z,23.28
2023-05-05T15:17:22.922Z,23.29
2023-05-05T15:19:27.272Z,23.28
2023-05-05T15:21:29.974Z,23.28
2023-05-05T15:23:34.730Z,23.26
2023-05-05T15:25:37.818Z,23.24
2023-05-05T15:27:40.695Z,23.23
2023-05-05T15:29:43.398Z,23.20
2023-05-05T15:31:46.241Z,23.22
2023-05-05T15:33:49.478Z,23.24
2023-05-05T15:35:53.713Z,23.23
2023-05-05T15:37:56.555Z,23.21
2023-05-05T15:39:59.979Z,23.21
2023-05-05T15:42:03.791Z,23.16
2023-05-05T15:44:07.199Z,23.16
2023-05-05T15:46:10.254Z,23.14
2023-05-05T15:48:12.929Z,23.12
2023-05-05T15:50:16.098Z,23.13
2023-05-05T15:52:20.279Z,23.12
2023-05-05T15:54:22.985Z,23.13
2023-05-05T15:56:27.287Z,23.15
2023-05-05T15:58:30.038Z,23.13
2023-05-05T16:00:32.561Z,23.14
2023-05-05T16:02:35.418Z,23.14
2023-05-05T16:04:38.211Z,23.13
2023-05-05T16:06:41.031Z,23.12
2023-05-05T16:08:47.630Z,23.10
2023-05-05T16:10:50.759Z,23.10
2023-05-05T16:12:53.491Z,23.10
2023-05-05T16:14:56.354Z,23.11
2023-05-05T16:17:01.026Z,23.11
2023-05-05T16:19:04.374Z,23.11
2023-05-05T16:21:07.155Z,23.13
2023-05-05T16:23:09.895Z,23.17
2023-05-05T16:25:14.178Z,23.19
2023-05-05T16:27:17.519Z,23.21
2023-05-05T16:29:20.204Z,23.23
2023-05-05T16:31:23.088Z,23.22
2023-05-05T16:33:27.107Z,23.23
2023-05-05T16:35:29.820Z,23.23
2023-05-05T16:37:32.546Z,23.25
2023-05-05T16:39:40.035Z,23.24
2023-05-05T16:41:44.287Z,23.26
2023-05-05T16:43:47.285Z,23.26
2023-05-05T16:45:50.351Z,23.27
2023-05-05T16:47:55.413Z,23.26
2023-05-05T16:49:58.850Z,23.25
2023-05-05T16:52:01.570Z,23.26
2023-05-05T16:56:07.442Z,23.34
2023-05-05T16:58:12.366Z,23.35
2023-05-05T17:00:15.881Z,23.36
2023-05-05T17:02:18.701Z,23.38
2023-05-05T17:04:21.550Z,23.37
2023-05-05T17:06:24.367Z,23.37
2023-05-05T17:08:27.210Z,23.34
2023-05-05T17:10:30.476Z,23.33
2023-05-05T17:12:33.241Z,23.33
2023-05-05T17:14:37.888Z,23.32
2023-05-05T17:16:41.244Z,23.35
2023-05-05T17:18:44.193Z,23.34
2023-05-05T17:20:47.021Z,23.33
2023-05-05T17:22:49.756Z,23.31
2023-05-05T17:24:52.437Z,23.30
2023-05-05T17:26:55.183Z,23.28
2023-05-05T17:28:58.260Z,23.27
2023-05-05T17:31:02.443Z,23.23
2023-05-05T17:33:05.375Z,23.24
2023-05-05T17:35:08.925Z,23.21
2023-05-05T17:37:12.018Z,23.20
2023-05-05T17:39:14.772Z,23.17
2023-05-05T17:41:18.498Z,23.15
2023-05-05T17:43:21.125Z,23.13
2023-05-05T17:45:23.594Z,23.12
2023-05-05T17:47:27.959Z,23.10
2023-05-05T17:49:30.827Z,23.08
2023-05-05T17:51:33.550Z,23.07
2023-05-05T17:53:36.185Z,23.05
2023-05-05T17:55:38.874Z,23.04
2023-05-05T17:57:41.636Z,23.01
2023-05-05T17:59:44.496Z,22.99
2023-05-05T18:01:47.307Z,22.98
2023-05-05T18:03:52.387Z,22.98
2023-05-05T18:05:55.486Z,22.97
2023-05-05T18:07:58.596Z,22.94
2023-05-05T18:10:01.413Z,22.94
2023-05-05T18:12:04.604Z,22.93
2023-05-05T18:14:07.134Z,22.92
2023-05-05T18:16:09.853Z,22.90
2023-05-05T18:18:12.587Z,22.87
2023-05-05T18:20:17.737Z,22.84
2023-05-05T18:22:21.741Z,22.82
2023-05-05T18:24:24.825Z,22.80
2023-05-05T18:26:27.541Z,22.79
2023-05-05T18:28:30.409Z,22.77
2023-05-05T18:30:33.467Z,22.76
2023-05-05T18:32:36.344Z,22.74
2023-05-05T18:34:39.220Z,22.72
2023-05-05T18:36:43.503Z,22.70
2023-05-05T18:38:46.347Z,22.69
2023-05-05T18:40:49.129Z,22.67
2023-05-05T18:42:52.188Z,22.63
2023-05-05T18:44:55.034Z,22.62
2023-05-05T18:46:57.782Z,22.60
2023-05-05T18:49:00.753Z,22.59
2023-05-05T18:51:03.911Z,22.56
2023-05-05T18:53:08.110Z,22.56
2023-05-05T18:55:11.608Z,22.54
2023-05-05T18:57:14.893Z,22.54
2023-05-05T18:59:17.752Z,22.53
2023-05-05T19:01:21.005Z,22.53
2023-05-05T19:03:24.227Z,22.53
2023-05-05T19:05:28.078Z,22.54
2023-05-05T19:07:35.416Z,22.54
2023-05-05T19:09:40.018Z,22.53
2023-05-05T19:11:42.974Z,22.53
2023-05-05T19:13:45.778Z,22.52
2023-05-05T19:15:49.248Z,22.53
2023-05-05T19:17:52.034Z,22.53
2023-05-05T19:19:54.938Z,22.52
2023-05-05T19:21:57.966Z,22.53
2023-05-05T19:24:00.978Z,22.52
2023-05-05T19:26:05.682Z,22.51
2023-05-05T19:28:08.558Z,22.48
2023-05-05T19:30:12.247Z,22.47
2023-05-05T19:32:15.528Z,22.47
2023-05-05T19:34:18.357Z,22.46
2023-05-05T19:36:21.356Z,22.45
2023-05-05T19:38:24.225Z,22.44
2023-05-05T19:40:27.307Z,22.44
2023-05-05T19:42:31.378Z,22.42
2023-05-05T19:44:34.211Z,22.41
2023-05-05T19:46:37.025Z,22.40
2023-05-05T19:48:40.050Z,22.38
2023-05-05T19:50:42.841Z,22.37
2023-05-05T19:52:45.701Z,22.37
2023-05-05T19:54:48.425Z,22.35
2023-05-05T19:56:55.277Z,22.33
2023-05-05T19:59:01.475Z,22.33
2023-05-05T20:01:04.287Z,22.31
2023-05-05T20:03:08.742Z,22.32
2023-05-05T20:05:13.770Z,22.29
2023-05-05T20:07:17.803Z,22.28
2023-05-05T20:09:20.703Z,22.27
2023-05-05T20:11:23.723Z,22.25
2023-05-05T20:13:26.473Z,22.23
2023-05-05T20:15:31.381Z,22.22
2023-05-05T20:17:35.509Z,22.21
2023-05-05T20:19:38.442Z,22.20
2023-05-05T20:21:41.394Z,22.19
2023-05-05T20:23:45.094Z,22.19
2023-05-05T20:25:48.273Z,22.16
2023-05-05T20:27:52.098Z,22.14
2023-05-05T20:29:54.879Z,22.12
2023-05-05T20:31:59.180Z,22.08
2023-05-05T20:34:02.039Z,22.08
2023-05-05T20:36:05.221Z,22.07
2023-05-05T20:38:09.591Z,22.05
2023-05-05T20:40:13.494Z,22.02
2023-05-05T20:42:16.474Z,21.99
2023-05-05T20:44:19.354Z,21.98
2023-05-05T20:46:22.186Z,21.96
2023-05-05T20:48:26.304Z,21.94
2023-05-05T20:50:29.123Z,21.93
2023-05-05T20:52:31.874Z,21.92
2023-05-05T20:54:34.784Z,21.91
2023-05-05T20:56:37.560Z,21.90
2023-05-05T20:58:40.374Z,21.89
2023-05-05T21:00:43.215Z,21.88
2023-05-05T21:02:46.167Z,21.89
2023-05-05T21:04:50.478Z,21.88
2023-05-05T21:07:12.790Z,21.90
2023-05-05T21:09:35.160Z,21.90
2023-05-05T21:11:56.683Z,21.92
2023-05-05T21:14:18.034Z,21.92
2023-05-05T21:16:21.897Z,21.92
2023-05-05T21:18:25.816Z,21.92
